sensor_id;sensor_type;location;lat;lon;timestamp;P1;durP1;ratioP1;P2;durP2;ratioP2
44670;SDS011;48397;53.016;-2.260;2022-07-19T00:03:07;20.80;;;12.13;;
44670;SDS011;48397;53.016;-2.260;2022-07-19T00:05:35;17.10;;;12.38;;
44670;SDS011;48397;53.016;-2.260;2022-07-19T00:08:03;18.48;;;12.00;;
44670;SDS011;48397;53.016;-2.260;2022-07-19T00:10:32;21.27;;;12.73;;
44670;SDS011;48397;53.016;-2.260;2022-07-19T00:12:59;14.95;;;11.35;;
44670;SDS011;48397;53.016;-2.260;2022-07-19T00:17:55;23.90;;;12.07;;
44670;SDS011;48397;53.016;-2.260;2022-07-19T00:30:13;17.75;;;10.70;;
44670;SDS011;48397;53.016;-2.260;2022-07-19T00:32:41;16.10;;;11.32;;
44670;SDS011;48397;53.016;-2.260;2022-07-19T00:37:37;19.70;;;11.68;;
44670;SDS011;48397;53.016;-2.260;2022-07-19T00:40:13;18.38;;;12.35;;
44670;SDS011;48397;53.016;-2.260;2022-07-19T00:42:42;16.50;;;10.85;;
44670;SDS011;48397;53.016;-2.260;2022-07-19T00:45:10;17.02;;;10.93;;
44670;SDS011;48397;53.016;-2.260;2022-07-19T00:47:38;16.08;;;10.85;;
44670;SDS011;48397;53.016;-2.260;2022-07-19T00:52:34;14.93;;;11.63;;
44670;SDS011;48397;53.016;-2.260;2022-07-19T00:55:07;18.08;;;11.55;;
44670;SDS011;48397;53.016;-2.260;2022-07-19T00:57:38;17.75;;;11.40;;
44670;SDS011;48397;53.016;-2.260;2022-07-19T01:00:07;16.85;;;10.93;;
44670;SDS011;48397;53.016;-2.260;2022-07-19T01:02:37;19.38;;;11.38;;
44670;SDS011;48397;53.016;-2.260;2022-07-19T01:05:05;16.58;;;11.45;;
44670;SDS011;48397;53.016;-2.260;2022-07-19T01:07:34;17.50;;;11.48;;
44670;SDS011;48397;53.016;-2.260;2022-07-19T01:10:04;16.35;;;10.60;;
44670;SDS011;48397;53.016;-2.260;2022-07-19T01:12:34;21.08;;;11.15;;
44670;SDS011;48397;53.016;-2.260;2022-07-19T01:15:02;19.13;;;11.00;;
44670;SDS011;48397;53.016;-2.260;2022-07-19T01:17:43;20.13;;;11.60;;
44670;SDS011;48397;53.016;-2.260;2022-07-19T01:20:10;19.40;;;11.95;;
44670;SDS011;48397;53.016;-2.260;2022-07-19T01:25:06;19.58;;;12.23;;
44670;SDS011;48397;53.016;-2.260;2022-07-19T01:27:40;25.60;;;11.95;;
44670;SDS011;48397;53.016;-2.260;2022-07-19T01:30:17;21.05;;;12.43;;
44670;SDS011;48397;53.016;-2.260;2022-07-19T01:32:46;18.45;;;13.05;;
44670;SDS011;48397;53.016;-2.260;2022-07-19T01:35:15;18.77;;;12.73;;
44670;SDS011;48397;53.016;-2.260;2022-07-19T01:40:12;20.70;;;12.90;;
44670;SDS011;48397;53.016;-2.260;2022-07-19T01:42:41;27.23;;;13.70;;
44670;SDS011;48397;53.016;-2.260;2022-07-19T01:45:10;24.10;;;13.55;;
44670;SDS011;48397;53.016;-2.260;2022-07-19T01:47:39;23.65;;;13.95;;
44670;SDS011;48397;53.016;-2.260;2022-07-19T01:50:11;26.52;;;13.30;;
44670;SDS011;48397;53.016;-2.260;2022-07-19T01:52:41;21.40;;;13.20;;
44670;SDS011;48397;53.016;-2.260;2022-07-19T01:55:16;26.23;;;13.70;;
44670;SDS011;48397;53.016;-2.260;2022-07-19T01:57:45;29.83;;;15.05;;
44670;SDS011;48397;53.016;-2.260;2022-07-19T02:00:14;32.80;;;14.43;;
44670;SDS011;48397;53.016;-2.260;2022-07-19T02:02:42;32.30;;;15.90;;
44670;SDS011;48397;53.016;-2.260;2022-07-19T02:05:10;26.70;;;14.63;;
44670;SDS011;48397;53.016;-2.260;2022-07-19T02:10:06;20.95;;;13.05;;
44670;SDS011;48397;53.016;-2.260;2022-07-19T02:12:35;25.20;;;14.30;;
44670;SDS011;48397;53.016;-2.260;2022-07-19T02:15:04;24.65;;;13.75;;
44670;SDS011;48397;53.016;-2.260;2022-07-19T02:17:32;22.10;;;13.23;;
44670;SDS011;48397;53.016;-2.260;2022-07-19T02:22:28;20.70;;;13.20;;
44670;SDS011;48397;53.016;-2.260;2022-07-19T02:27:23;37.50;;;15.57;;
44670;SDS011;48397;53.016;-2.260;2022-07-19T02:29:51;29.23;;;14.63;;
44670;SDS011;48397;53.016;-2.260;2022-07-19T02:32:18;25.10;;;13.75;;
44670;SDS011;48397;53.016;-2.260;2022-07-19T02:34:46;25.40;;;14.27;;
44670;SDS011;48397;53.016;-2.260;2022-07-19T02:39:42;18.90;;;11.98;;
44670;SDS011;48397;53.016;-2.260;2022-07-19T02:44:37;24.50;;;13.82;;
44670;SDS011;48397;53.016;-2.260;2022-07-19T02:47:05;26.40;;;15.15;;
44670;SDS011;48397;53.016;-2.260;2022-07-19T02:49:33;25.88;;;15.52;;
44670;SDS011;48397;53.016;-2.260;2022-07-19T02:52:57;26.40;;;15.38;;
44670;SDS011;48397;53.016;-2.260;2022-07-19T02:55:25;24.63;;;15.23;;
44670;SDS011;48397;53.016;-2.260;2022-07-19T02:57:53;22.63;;;14.95;;
44670;SDS011;48397;53.016;-2.260;2022-07-19T03:02:48;22.75;;;15.23;;
44670;SDS011;48397;53.016;-2.260;2022-07-19T03:05:16;25.63;;;14.35;;
44670;SDS011;48397;53.016;-2.260;2022-07-19T03:07:44;22.70;;;14.63;;
44670;SDS011;48397;53.016;-2.260;2022-07-19T03:10:13;27.92;;;15.40;;
44670;SDS011;48397;53.016;-2.260;2022-07-19T03:12:40;25.67;;;15.30;;
44670;SDS011;48397;53.016;-2.260;2022-07-19T03:15:08;20.90;;;14.35;;
44670;SDS011;48397;53.016;-2.260;2022-07-19T03:20:03;17.17;;;12.40;;
44670;SDS011;48397;53.016;-2.260;2022-07-19T03:22:32;23.80;;;14.05;;
44670;SDS011;48397;53.016;-2.260;2022-07-19T03:24:59;19.58;;;14.00;;
44670;SDS011;48397;53.016;-2.260;2022-07-19T03:27:27;21.02;;;12.73;;
44670;SDS011;48397;53.016;-2.260;2022-07-19T03:29:55;17.38;;;11.82;;
44670;SDS011;48397;53.016;-2.260;2022-07-19T03:32:22;24.17;;;14.90;;
44670;SDS011;48397;53.016;-2.260;2022-07-19T03:34:50;22.75;;;13.68;;
44670;SDS011;48397;53.016;-2.260;2022-07-19T03:37:18;26.70;;;14.32;;
44670;SDS011;48397;53.016;-2.260;2022-07-19T03:39:45;22.70;;;13.20;;
44670;SDS011;48397;53.016;-2.260;2022-07-19T03:42:13;21.20;;;13.38;;
44670;SDS011;48397;53.016;-2.260;2022-07-19T03:44:41;19.35;;;12.93;;
44670;SDS011;48397;53.016;-2.260;2022-07-19T03:47:08;20.17;;;12.15;;
44670;SDS011;48397;53.016;-2.260;2022-07-19T03:49:36;19.80;;;12.00;;
44670;SDS011;48397;53.016;-2.260;2022-07-19T03:52:04;18.20;;;11.45;;
44670;SDS011;48397;53.016;-2.260;2022-07-19T03:57:00;17.67;;;11.65;;
44670;SDS011;48397;53.016;-2.260;2022-07-19T04:01:56;20.77;;;13.27;;
44670;SDS011;48397;53.016;-2.260;2022-07-19T04:06:51;25.90;;;14.38;;
44670;SDS011;48397;53.016;-2.260;2022-07-19T04:09:19;23.92;;;15.10;;
44670;SDS011;48397;53.016;-2.260;2022-07-19T04:11:46;23.73;;;14.00;;
44670;SDS011;48397;53.016;-2.260;2022-07-19T04:14:14;24.85;;;14.45;;
44670;SDS011;48397;53.016;-2.260;2022-07-19T04:21:37;26.27;;;15.00;;
44670;SDS011;48397;53.016;-2.260;2022-07-19T04:24:05;26.08;;;14.52;;
44670;SDS011;48397;53.016;-2.260;2022-07-19T04:26:37;28.40;;;15.63;;
44670;SDS011;48397;53.016;-2.260;2022-07-19T04:29:05;27.30;;;15.57;;
44670;SDS011;48397;53.016;-2.260;2022-07-19T04:31:33;28.02;;;15.43;;
44670;SDS011;48397;53.016;-2.260;2022-07-19T04:34:01;23.17;;;14.48;;
44670;SDS011;48397;53.016;-2.260;2022-07-19T04:36:29;23.83;;;13.50;;
44670;SDS011;48397;53.016;-2.260;2022-07-19T04:38:57;18.45;;;12.82;;
44670;SDS011;48397;53.016;-2.260;2022-07-19T04:41:24;21.20;;;13.25;;
44670;SDS011;48397;53.016;-2.260;2022-07-19T04:43:52;25.83;;;13.73;;
44670;SDS011;48397;53.016;-2.260;2022-07-19T04:46:21;26.42;;;14.75;;
44670;SDS011;48397;53.016;-2.260;2022-07-19T04:48:48;22.58;;;13.98;;
44670;SDS011;48397;53.016;-2.260;2022-07-19T04:51:16;21.70;;;13.98;;
44670;SDS011;48397;53.016;-2.260;2022-07-19T04:53:44;26.83;;;15.20;;
44670;SDS011;48397;53.016;-2.260;2022-07-19T04:56:11;30.88;;;14.48;;
44670;SDS011;48397;53.016;-2.260;2022-07-19T04:58:39;24.15;;;13.82;;
44670;SDS011;48397;53.016;-2.260;2022-07-19T05:01:07;21.67;;;13.45;;
44670;SDS011;48397;53.016;-2.260;2022-07-19T05:03:35;22.88;;;14.35;;
44670;SDS011;48397;53.016;-2.260;2022-07-19T05:06:02;26.13;;;14.25;;
44670;SDS011;48397;53.016;-2.260;2022-07-19T05:08:30;22.95;;;14.30;;
44670;SDS011;48397;53.016;-2.260;2022-07-19T05:10:58;21.02;;;13.38;;
44670;SDS011;48397;53.016;-2.260;2022-07-19T05:13:26;23.17;;;14.18;;
44670;SDS011;48397;53.016;-2.260;2022-07-19T05:15:53;23.42;;;13.65;;
44670;SDS011;48397;53.016;-2.260;2022-07-19T05:18:21;23.25;;;13.93;;
44670;SDS011;48397;53.016;-2.260;2022-07-19T05:20:49;22.30;;;13.45;;
44670;SDS011;48397;53.016;-2.260;2022-07-19T05:23:17;22.83;;;14.52;;
44670;SDS011;48397;53.016;-2.260;2022-07-19T05:25:44;21.17;;;14.40;;
44670;SDS011;48397;53.016;-2.260;2022-07-19T05:28:12;25.63;;;14.10;;
44670;SDS011;48397;53.016;-2.260;2022-07-19T05:30:40;24.45;;;14.13;;
44670;SDS011;48397;53.016;-2.260;2022-07-19T05:33:09;28.33;;;15.07;;
44670;SDS011;48397;53.016;-2.260;2022-07-19T05:35:37;24.60;;;14.43;;
44670;SDS011;48397;53.016;-2.260;2022-07-19T05:38:05;25.05;;;14.80;;
44670;SDS011;48397;53.016;-2.260;2022-07-19T05:40:35;25.83;;;14.82;;
44670;SDS011;48397;53.016;-2.260;2022-07-19T05:43:03;20.17;;;14.10;;
44670;SDS011;48397;53.016;-2.260;2022-07-19T05:45:31;19.10;;;13.52;;
44670;SDS011;48397;53.016;-2.260;2022-07-19T05:47:58;18.73;;;12.35;;
44670;SDS011;48397;53.016;-2.260;2022-07-19T05:50:26;19.38;;;13.45;;
44670;SDS011;48397;53.016;-2.260;2022-07-19T05:55:22;19.83;;;11.35;;
44670;SDS011;48397;53.016;-2.260;2022-07-19T06:05:12;15.57;;;11.48;;
44670;SDS011;48397;53.016;-2.260;2022-07-19T06:07:40;18.58;;;12.18;;
44670;SDS011;48397;53.016;-2.260;2022-07-19T06:12:36;17.98;;;12.20;;
44670;SDS011;48397;53.016;-2.260;2022-07-19T06:17:34;16.52;;;11.82;;
44670;SDS011;48397;53.016;-2.260;2022-07-19T06:20:03;19.85;;;11.48;;
44670;SDS011;48397;53.016;-2.260;2022-07-19T06:22:31;16.83;;;10.88;;
44670;SDS011;48397;53.016;-2.260;2022-07-19T06:24:59;16.60;;;10.95;;
44670;SDS011;48397;53.016;-2.260;2022-07-19T06:32:22;15.40;;;9.95;;
44670;SDS011;48397;53.016;-2.260;2022-07-19T06:34:50;19.13;;;10.57;;
44670;SDS011;48397;53.016;-2.260;2022-07-19T06:42:13;18.08;;;10.35;;
44670;SDS011;48397;53.016;-2.260;2022-07-19T06:44:43;18.55;;;10.15;;
44670;SDS011;48397;53.016;-2.260;2022-07-19T06:52:06;17.08;;;10.23;;
44670;SDS011;48397;53.016;-2.260;2022-07-19T06:54:40;16.40;;;9.75;;
44670;SDS011;48397;53.016;-2.260;2022-07-19T06:57:08;16.17;;;9.50;;
44670;SDS011;48397;53.016;-2.260;2022-07-19T07:02:03;18.40;;;9.88;;
44670;SDS011;48397;53.016;-2.260;2022-07-19T07:04:32;18.05;;;10.30;;
44670;SDS011;48397;53.016;-2.260;2022-07-19T07:07:12;21.00;;;10.63;;
44670;SDS011;48397;53.016;-2.260;2022-07-19T07:09:41;16.02;;;10.38;;
44670;SDS011;48397;53.016;-2.260;2022-07-19T07:12:09;16.60;;;9.95;;
44670;SDS011;48397;53.016;-2.260;2022-07-19T07:14:37;18.48;;;10.10;;
44670;SDS011;48397;53.016;-2.260;2022-07-19T07:17:04;17.27;;;9.95;;
44670;SDS011;48397;53.016;-2.260;2022-07-19T07:19:32;17.33;;;10.32;;
44670;SDS011;48397;53.016;-2.260;2022-07-19T07:22:00;14.45;;;10.00;;
44670;SDS011;48397;53.016;-2.260;2022-07-19T07:24:28;18.85;;;10.23;;
44670;SDS011;48397;53.016;-2.260;2022-07-19T07:29:24;20.48;;;10.07;;
44670;SDS011;48397;53.016;-2.260;2022-07-19T07:31:52;16.58;;;9.43;;
44670;SDS011;48397;53.016;-2.260;2022-07-19T07:34:20;15.75;;;9.75;;
44670;SDS011;48397;53.016;-2.260;2022-07-19T07:36:48;15.35;;;9.88;;
44670;SDS011;48397;53.016;-2.260;2022-07-19T07:39:16;18.27;;;9.73;;
44670;SDS011;48397;53.016;-2.260;2022-07-19T07:41:44;14.73;;;9.80;;
44670;SDS011;48397;53.016;-2.260;2022-07-19T07:44:21;16.80;;;9.85;;
44670;SDS011;48397;53.016;-2.260;2022-07-19T07:46:49;15.80;;;10.07;;
44670;SDS011;48397;53.016;-2.260;2022-07-19T07:49:17;14.93;;;9.65;;
44670;SDS011;48397;53.016;-2.260;2022-07-19T07:51:45;17.98;;;9.68;;
44670;SDS011;48397;53.016;-2.260;2022-07-19T07:54:13;19.10;;;10.00;;
44670;SDS011;48397;53.016;-2.260;2022-07-19T07:56:42;18.13;;;9.75;;
44670;SDS011;48397;53.016;-2.260;2022-07-19T07:59:10;17.52;;;10.13;;
44670;SDS011;48397;53.016;-2.260;2022-07-19T08:01:38;14.07;;;9.55;;
44670;SDS011;48397;53.016;-2.260;2022-07-19T08:04:08;15.93;;;9.55;;
44670;SDS011;48397;53.016;-2.260;2022-07-19T08:06:36;14.43;;;8.90;;
44670;SDS011;48397;53.016;-2.260;2022-07-19T08:09:04;11.88;;;8.85;;
44670;SDS011;48397;53.016;-2.260;2022-07-19T08:11:32;14.93;;;9.00;;
44670;SDS011;48397;53.016;-2.260;2022-07-19T08:14:01;13.95;;;8.82;;
44670;SDS011;48397;53.016;-2.260;2022-07-19T08:16:29;16.95;;;9.05;;
44670;SDS011;48397;53.016;-2.260;2022-07-19T08:18:58;15.52;;;9.18;;
44670;SDS011;48397;53.016;-2.260;2022-07-19T08:21:25;13.90;;;8.95;;
44670;SDS011;48397;53.016;-2.260;2022-07-19T08:23:53;15.55;;;9.38;;
44670;SDS011;48397;53.016;-2.260;2022-07-19T08:26:21;19.75;;;9.70;;
44670;SDS011;48397;53.016;-2.260;2022-07-19T08:28:49;13.77;;;9.13;;
44670;SDS011;48397;53.016;-2.260;2022-07-19T08:31:16;16.92;;;9.25;;
44670;SDS011;48397;53.016;-2.260;2022-07-19T08:33:44;21.25;;;9.35;;
44670;SDS011;48397;53.016;-2.260;2022-07-19T08:36:12;13.73;;;8.90;;
44670;SDS011;48397;53.016;-2.260;2022-07-19T08:38:41;19.40;;;9.32;;
44670;SDS011;48397;53.016;-2.260;2022-07-19T08:41:09;14.25;;;8.95;;
44670;SDS011;48397;53.016;-2.260;2022-07-19T08:43:37;19.40;;;9.05;;
44670;SDS011;48397;53.016;-2.260;2022-07-19T08:46:05;15.75;;;9.07;;
44670;SDS011;48397;53.016;-2.260;2022-07-19T08:48:33;20.63;;;9.45;;
44670;SDS011;48397;53.016;-2.260;2022-07-19T08:51:12;14.40;;;9.05;;
44670;SDS011;48397;53.016;-2.260;2022-07-19T08:53:40;16.52;;;9.48;;
44670;SDS011;48397;53.016;-2.260;2022-07-19T08:56:09;17.42;;;9.52;;
44670;SDS011;48397;53.016;-2.260;2022-07-19T08:58:55;14.82;;;8.82;;
44670;SDS011;48397;53.016;-2.260;2022-07-19T09:01:23;20.95;;;9.18;;
44670;SDS011;48397;53.016;-2.260;2022-07-19T09:04:10;15.85;;;9.30;;
44670;SDS011;48397;53.016;-2.260;2022-07-19T09:06:44;12.93;;;8.98;;
44670;SDS011;48397;53.016;-2.260;2022-07-19T09:09:20;15.85;;;9.25;;
44670;SDS011;48397;53.016;-2.260;2022-07-19T09:11:50;16.38;;;9.23;;
44670;SDS011;48397;53.016;-2.260;2022-07-19T09:14:20;13.85;;;8.60;;
44670;SDS011;48397;53.016;-2.260;2022-07-19T09:19:33;14.38;;;8.93;;
44670;SDS011;48397;53.016;-2.260;2022-07-19T09:22:03;18.35;;;8.88;;
44670;SDS011;48397;53.016;-2.260;2022-07-19T09:24:39;20.92;;;9.18;;
44670;SDS011;48397;53.016;-2.260;2022-07-19T09:27:20;12.50;;;9.40;;
44670;SDS011;48397;53.016;-2.260;2022-07-19T09:29:53;17.13;;;8.60;;
44670;SDS011;48397;53.016;-2.260;2022-07-19T09:32:23;12.95;;;8.70;;
44670;SDS011;48397;53.016;-2.260;2022-07-19T09:34:59;13.52;;;9.18;;
44670;SDS011;48397;53.016;-2.260;2022-07-19T09:37:32;14.95;;;9.20;;
44670;SDS011;48397;53.016;-2.260;2022-07-19T09:40:05;13.30;;;8.85;;
44670;SDS011;48397;53.016;-2.260;2022-07-19T09:45:14;13.60;;;8.80;;
44670;SDS011;48397;53.016;-2.260;2022-07-19T09:47:43;18.70;;;9.00;;
44670;SDS011;48397;53.016;-2.260;2022-07-19T09:50:14;12.93;;;8.23;;
44670;SDS011;48397;53.016;-2.260;2022-07-19T09:52:47;22.40;;;9.18;;
44670;SDS011;48397;53.016;-2.260;2022-07-19T09:55:16;14.65;;;9.20;;
44670;SDS011;48397;53.016;-2.260;2022-07-19T09:57:46;14.00;;;9.10;;
44670;SDS011;48397;53.016;-2.260;2022-07-19T10:00:17;14.63;;;9.30;;
44670;SDS011;48397;53.016;-2.260;2022-07-19T10:02:50;16.20;;;9.15;;
44670;SDS011;48397;53.016;-2.260;2022-07-19T10:05:22;16.17;;;9.48;;
44670;SDS011;48397;53.016;-2.260;2022-07-19T10:07:51;16.10;;;9.43;;
44670;SDS011;48397;53.016;-2.260;2022-07-19T10:10:22;16.25;;;9.65;;
44670;SDS011;48397;53.016;-2.260;2022-07-19T10:12:52;20.38;;;9.40;;
44670;SDS011;48397;53.016;-2.260;2022-07-19T10:15:20;13.00;;;9.65;;
44670;SDS011;48397;53.016;-2.260;2022-07-19T10:20:23;14.65;;;9.25;;
44670;SDS011;48397;53.016;-2.260;2022-07-19T10:22:53;17.90;;;9.90;;
44670;SDS011;48397;53.016;-2.260;2022-07-19T10:25:25;17.30;;;9.57;;
44670;SDS011;48397;53.016;-2.260;2022-07-19T10:31:26;16.75;;;9.73;;
44670;SDS011;48397;53.016;-2.260;2022-07-19T10:33:59;15.55;;;9.40;;
44670;SDS011;48397;53.016;-2.260;2022-07-19T10:36:44;15.45;;;10.00;;
44670;SDS011;48397;53.016;-2.260;2022-07-19T10:42:18;19.95;;;9.85;;
44670;SDS011;48397;53.016;-2.260;2022-07-19T10:52:46;22.30;;;9.35;;
44670;SDS011;48397;53.016;-2.260;2022-07-19T10:57:51;18.45;;;10.35;;
44670;SDS011;48397;53.016;-2.260;2022-07-19T11:00:23;16.75;;;9.80;;
44670;SDS011;48397;53.016;-2.260;2022-07-19T11:06:01;19.10;;;10.23;;
44670;SDS011;48397;53.016;-2.260;2022-07-19T11:11:05;19.45;;;9.98;;
44670;SDS011;48397;53.016;-2.260;2022-07-19T11:13:34;21.45;;;9.85;;
44670;SDS011;48397;53.016;-2.260;2022-07-19T11:16:04;23.75;;;10.15;;
44670;SDS011;48397;53.016;-2.260;2022-07-19T11:18:32;18.67;;;10.02;;
44670;SDS011;48397;53.016;-2.260;2022-07-19T11:21:02;18.35;;;10.10;;
44670;SDS011;48397;53.016;-2.260;2022-07-19T11:23:33;15.85;;;10.23;;
44670;SDS011;48397;53.016;-2.260;2022-07-19T11:26:06;17.42;;;10.63;;
44670;SDS011;48397;53.016;-2.260;2022-07-19T11:28:34;21.23;;;11.15;;
44670;SDS011;48397;53.016;-2.260;2022-07-19T11:33:46;21.80;;;10.05;;
44670;SDS011;48397;53.016;-2.260;2022-07-19T11:36:15;18.15;;;10.13;;
44670;SDS011;48397;53.016;-2.260;2022-07-19T11:38:46;23.08;;;11.18;;
44670;SDS011;48397;53.016;-2.260;2022-07-19T11:41:20;19.38;;;10.70;;
44670;SDS011;48397;53.016;-2.260;2022-07-19T11:46:22;18.23;;;10.77;;
44670;SDS011;48397;53.016;-2.260;2022-07-19T11:48:58;19.25;;;10.52;;
44670;SDS011;48397;53.016;-2.260;2022-07-19T11:51:28;20.20;;;11.48;;
44670;SDS011;48397;53.016;-2.260;2022-07-19T11:53:57;19.13;;;10.23;;
44670;SDS011;48397;53.016;-2.260;2022-07-19T11:56:26;19.33;;;10.23;;
44670;SDS011;48397;53.016;-2.260;2022-07-19T11:58:56;17.85;;;10.35;;
44670;SDS011;48397;53.016;-2.260;2022-07-19T12:03:55;18.30;;;11.20;;
44670;SDS011;48397;53.016;-2.260;2022-07-19T12:06:46;21.27;;;10.88;;
44670;SDS011;48397;53.016;-2.260;2022-07-19T12:09:34;17.67;;;10.63;;
44670;SDS011;48397;53.016;-2.260;2022-07-19T12:12:16;18.98;;;9.98;;
44670;SDS011;48397;53.016;-2.260;2022-07-19T12:14:44;23.17;;;11.50;;
44670;SDS011;48397;53.016;-2.260;2022-07-19T12:19:48;19.35;;;11.52;;
44670;SDS011;48397;53.016;-2.260;2022-07-19T12:22:28;23.13;;;10.93;;
44670;SDS011;48397;53.016;-2.260;2022-07-19T12:25:08;17.52;;;11.32;;
44670;SDS011;48397;53.016;-2.260;2022-07-19T12:27:36;21.63;;;10.80;;
44670;SDS011;48397;53.016;-2.260;2022-07-19T12:30:05;23.00;;;11.30;;
44670;SDS011;48397;53.016;-2.260;2022-07-19T12:32:34;18.08;;;10.50;;
44670;SDS011;48397;53.016;-2.260;2022-07-19T12:35:11;18.27;;;10.88;;
44670;SDS011;48397;53.016;-2.260;2022-07-19T12:37:41;18.00;;;10.60;;
44670;SDS011;48397;53.016;-2.260;2022-07-19T12:45:28;25.55;;;11.27;;
44670;SDS011;48397;53.016;-2.260;2022-07-19T12:48:01;15.40;;;10.70;;
44670;SDS011;48397;53.016;-2.260;2022-07-19T12:50:34;21.08;;;10.27;;
44670;SDS011;48397;53.016;-2.260;2022-07-19T12:53:07;22.48;;;11.27;;
44670;SDS011;48397;53.016;-2.260;2022-07-19T12:55:37;21.10;;;10.63;;
44670;SDS011;48397;53.016;-2.260;2022-07-19T12:58:07;24.25;;;11.52;;
44670;SDS011;48397;53.016;-2.260;2022-07-19T13:00:36;19.08;;;11.05;;
44670;SDS011;48397;53.016;-2.260;2022-07-19T13:03:05;22.38;;;10.43;;
44670;SDS011;48397;53.016;-2.260;2022-07-19T13:05:33;19.60;;;10.80;;
44670;SDS011;48397;53.016;-2.260;2022-07-19T13:08:01;19.13;;;11.15;;
44670;SDS011;48397;53.016;-2.260;2022-07-19T13:10:29;22.80;;;10.90;;
44670;SDS011;48397;53.016;-2.260;2022-07-19T13:12:57;23.58;;;9.77;;
44670;SDS011;48397;53.016;-2.260;2022-07-19T13:15:25;23.38;;;10.63;;
44670;SDS011;48397;53.016;-2.260;2022-07-19T13:17:53;15.02;;;8.25;;
44670;SDS011;48397;53.016;-2.260;2022-07-19T13:20:27;21.15;;;9.90;;
44670;SDS011;48397;53.016;-2.260;2022-07-19T13:22:55;21.05;;;10.80;;
44670;SDS011;48397;53.016;-2.260;2022-07-19T13:25:23;23.05;;;10.20;;
44670;SDS011;48397;53.016;-2.260;2022-07-19T13:30:37;21.58;;;9.32;;
44670;SDS011;48397;53.016;-2.260;2022-07-19T13:33:05;21.23;;;10.13;;
44670;SDS011;48397;53.016;-2.260;2022-07-19T13:35:35;24.27;;;10.77;;
44670;SDS011;48397;53.016;-2.260;2022-07-19T13:38:03;21.13;;;11.05;;
44670;SDS011;48397;53.016;-2.260;2022-07-19T13:40:30;22.67;;;11.23;;
44670;SDS011;48397;53.016;-2.260;2022-07-19T13:42:58;29.65;;;12.73;;
44670;SDS011;48397;53.016;-2.260;2022-07-19T13:45:26;25.38;;;12.80;;
44670;SDS011;48397;53.016;-2.260;2022-07-19T13:47:54;21.13;;;13.15;;
44670;SDS011;48397;53.016;-2.260;2022-07-19T13:50:30;27.33;;;13.35;;
44670;SDS011;48397;53.016;-2.260;2022-07-19T13:52:58;26.55;;;14.13;;
44670;SDS011;48397;53.016;-2.260;2022-07-19T13:55:28;33.50;;;14.95;;
44670;SDS011;48397;53.016;-2.260;2022-07-19T13:57:56;23.95;;;16.00;;
44670;SDS011;48397;53.016;-2.260;2022-07-19T14:00:25;22.17;;;14.82;;
44670;SDS011;48397;53.016;-2.260;2022-07-19T14:02:52;25.42;;;15.82;;
44670;SDS011;48397;53.016;-2.260;2022-07-19T14:05:20;32.53;;;14.85;;
44670;SDS011;48397;53.016;-2.260;2022-07-19T14:07:48;30.20;;;14.55;;
44670;SDS011;48397;53.016;-2.260;2022-07-19T14:10:16;24.92;;;16.58;;
44670;SDS011;48397;53.016;-2.260;2022-07-19T14:12:44;26.15;;;16.88;;
44670;SDS011;48397;53.016;-2.260;2022-07-19T14:15:12;28.83;;;17.58;;
44670;SDS011;48397;53.016;-2.260;2022-07-19T14:17:40;29.05;;;15.80;;
44670;SDS011;48397;53.016;-2.260;2022-07-19T14:20:08;27.55;;;16.20;;
44670;SDS011;48397;53.016;-2.260;2022-07-19T14:22:36;35.40;;;15.57;;
44670;SDS011;48397;53.016;-2.260;2022-07-19T14:25:04;28.13;;;15.20;;
44670;SDS011;48397;53.016;-2.260;2022-07-19T14:27:32;20.42;;;14.63;;
44670;SDS011;48397;53.016;-2.260;2022-07-19T14:30:00;25.38;;;14.15;;
44670;SDS011;48397;53.016;-2.260;2022-07-19T14:32:28;47.65;;;16.23;;
44670;SDS011;48397;53.016;-2.260;2022-07-19T14:34:55;21.52;;;15.05;;
44670;SDS011;48397;53.016;-2.260;2022-07-19T14:37:23;26.42;;;15.27;;
44670;SDS011;48397;53.016;-2.260;2022-07-19T14:39:55;24.45;;;15.55;;
44670;SDS011;48397;53.016;-2.260;2022-07-19T14:42:23;14.93;;;10.48;;
44670;SDS011;48397;53.016;-2.260;2022-07-19T14:44:51;20.73;;;15.43;;
44670;SDS011;48397;53.016;-2.260;2022-07-19T14:47:19;30.33;;;21.00;;
44670;SDS011;48397;53.016;-2.260;2022-07-19T14:49:47;34.13;;;21.50;;
44670;SDS011;48397;53.016;-2.260;2022-07-19T14:52:14;41.78;;;22.63;;
44670;SDS011;48397;53.016;-2.260;2022-07-19T14:54:42;44.15;;;20.35;;
44670;SDS011;48397;53.016;-2.260;2022-07-19T14:57:10;24.42;;;17.90;;
44670;SDS011;48397;53.016;-2.260;2022-07-19T14:59:38;25.58;;;15.38;;
44670;SDS011;48397;53.016;-2.260;2022-07-19T15:02:11;43.72;;;22.30;;
44670;SDS011;48397;53.016;-2.260;2022-07-19T15:04:40;30.20;;;19.55;;
44670;SDS011;48397;53.016;-2.260;2022-07-19T15:07:08;22.65;;;16.63;;
44670;SDS011;48397;53.016;-2.260;2022-07-19T15:09:36;24.92;;;18.08;;
44670;SDS011;48397;53.016;-2.260;2022-07-19T15:12:03;24.90;;;16.33;;
44670;SDS011;48397;53.016;-2.260;2022-07-19T15:14:32;19.58;;;14.55;;
44670;SDS011;48397;53.016;-2.260;2022-07-19T15:17:00;27.83;;;19.45;;
44670;SDS011;48397;53.016;-2.260;2022-07-19T15:19:30;28.15;;;17.48;;
44670;SDS011;48397;53.016;-2.260;2022-07-19T15:21:58;23.48;;;18.42;;
44670;SDS011;48397;53.016;-2.260;2022-07-19T15:24:26;25.63;;;18.77;;
44670;SDS011;48397;53.016;-2.260;2022-07-19T15:26:54;27.27;;;19.10;;
44670;SDS011;48397;53.016;-2.260;2022-07-19T15:29:22;24.35;;;17.98;;
44670;SDS011;48397;53.016;-2.260;2022-07-19T15:31:50;24.98;;;19.13;;
44670;SDS011;48397;53.016;-2.260;2022-07-19T15:34:18;23.02;;;18.38;;
44670;SDS011;48397;53.016;-2.260;2022-07-19T15:36:45;25.15;;;17.98;;
44670;SDS011;48397;53.016;-2.260;2022-07-19T15:39:13;26.33;;;19.00;;
44670;SDS011;48397;53.016;-2.260;2022-07-19T15:41:41;26.00;;;19.88;;
44670;SDS011;48397;53.016;-2.260;2022-07-19T15:44:09;23.20;;;16.33;;
44670;SDS011;48397;53.016;-2.260;2022-07-19T15:46:36;23.48;;;17.60;;
44670;SDS011;48397;53.016;-2.260;2022-07-19T15:49:11;25.58;;;17.45;;
44670;SDS011;48397;53.016;-2.260;2022-07-19T15:51:39;23.38;;;17.80;;
44670;SDS011;48397;53.016;-2.260;2022-07-19T15:54:07;24.90;;;18.52;;
44670;SDS011;48397;53.016;-2.260;2022-07-19T15:56:35;21.00;;;16.67;;
44670;SDS011;48397;53.016;-2.260;2022-07-19T15:59:02;25.67;;;14.23;;
44670;SDS011;48397;53.016;-2.260;2022-07-19T16:01:30;24.02;;;16.60;;
44670;SDS011;48397;53.016;-2.260;2022-07-19T16:03:58;24.98;;;18.67;;
44670;SDS011;48397;53.016;-2.260;2022-07-19T16:06:26;24.75;;;17.60;;
44670;SDS011;48397;53.016;-2.260;2022-07-19T16:08:53;19.02;;;14.30;;
44670;SDS011;48397;53.016;-2.260;2022-07-19T16:11:21;20.95;;;15.35;;
44670;SDS011;48397;53.016;-2.260;2022-07-19T16:13:49;23.30;;;16.75;;
44670;SDS011;48397;53.016;-2.260;2022-07-19T16:16:16;22.25;;;17.45;;
44670;SDS011;48397;53.016;-2.260;2022-07-19T16:18:44;25.83;;;16.98;;
44670;SDS011;48397;53.016;-2.260;2022-07-19T16:21:12;25.90;;;17.80;;
44670;SDS011;48397;53.016;-2.260;2022-07-19T16:23:40;22.20;;;18.23;;
44670;SDS011;48397;53.016;-2.260;2022-07-19T16:26:08;26.75;;;18.10;;
44670;SDS011;48397;53.016;-2.260;2022-07-19T16:28:36;26.85;;;18.92;;
44670;SDS011;48397;53.016;-2.260;2022-07-19T16:31:04;21.23;;;17.27;;
44670;SDS011;48397;53.016;-2.260;2022-07-19T16:33:32;25.35;;;16.83;;
44670;SDS011;48397;53.016;-2.260;2022-07-19T16:36:01;25.73;;;17.58;;
44670;SDS011;48397;53.016;-2.260;2022-07-19T16:38:28;24.38;;;17.98;;
44670;SDS011;48397;53.016;-2.260;2022-07-19T16:40:57;22.35;;;17.17;;